Aledo, Illinois
Current Conditions -  °F | °C
As of 1:52 AM on Friday 31 Oct 2014 (Local Time) from KMLI Reporting Station
Overcast Overcast  
Wind Chill: 43°   Ceiling: 4800
Heat Index: 48°   Visibility: 10mi
Dew Point: 37°   Wind: 10mph
Humidity: 66%   Direction: 320°NW
Pressure: 30.12"   Gusts: NA
Location:  41.2°N, 90.75°W
Report Text: KMLI 310652Z AUTO 32009KT 10SM FEW028 OVC048 09/03 A3012 RMK AO2 SLP201 T00890028
Loading
Personal Weather Stations






























Interactive Weather Map
Tropical Storm Tracking
New forecast layout! Learn more

10-Day Weather Forecast

Advertisements
Track Severe Weather on mobile